sensor_id;sensor_type;location;lat;lon;timestamp;P1;durP1;ratioP1;P2;durP2;ratioP2
51614;SDS011;37695;52.960;6.188;2022-11-15T00:00:07;15.90;;;12.00;;
51614;SDS011;37695;52.960;6.188;2022-11-15T00:02:33;14.82;;;11.77;;
51614;SDS011;37695;52.960;6.188;2022-11-15T00:04:58;18.30;;;12.63;;
51614;SDS011;37695;52.960;6.188;2022-11-15T00:07:24;15.23;;;12.10;;
51614;SDS011;37695;52.960;6.188;2022-11-15T00:09:49;19.23;;;12.00;;
51614;SDS011;37695;52.960;6.188;2022-11-15T00:12:15;16.58;;;11.60;;
51614;SDS011;37695;52.960;6.188;2022-11-15T00:14:40;14.80;;;10.93;;
51614;SDS011;37695;52.960;6.188;2022-11-15T00:17:06;16.27;;;11.77;;
51614;SDS011;37695;52.960;6.188;2022-11-15T00:19:31;16.30;;;11.68;;
51614;SDS011;37695;52.960;6.188;2022-11-15T00:21:58;16.13;;;11.45;;
51614;SDS011;37695;52.960;6.188;2022-11-15T00:24:23;16.25;;;11.98;;
51614;SDS011;37695;52.960;6.188;2022-11-15T00:26:49;17.77;;;12.68;;
51614;SDS011;37695;52.960;6.188;2022-11-15T00:29:14;15.68;;;11.52;;
51614;SDS011;37695;52.960;6.188;2022-11-15T00:31:40;15.23;;;10.73;;
51614;SDS011;37695;52.960;6.188;2022-11-15T00:34:05;15.25;;;10.75;;
51614;SDS011;37695;52.960;6.188;2022-11-15T00:36:32;15.02;;;11.57;;
51614;SDS011;37695;52.960;6.188;2022-11-15T00:38:59;16.08;;;12.23;;
51614;SDS011;37695;52.960;6.188;2022-11-15T00:41:25;16.90;;;12.20;;
51614;SDS011;37695;52.960;6.188;2022-11-15T00:43:50;16.38;;;12.35;;
51614;SDS011;37695;52.960;6.188;2022-11-15T00:46:16;16.23;;;12.57;;
51614;SDS011;37695;52.960;6.188;2022-11-15T00:48:41;18.08;;;13.32;;
51614;SDS011;37695;52.960;6.188;2022-11-15T00:51:07;15.75;;;12.07;;
51614;SDS011;37695;52.960;6.188;2022-11-15T00:53:32;18.92;;;12.60;;
51614;SDS011;37695;52.960;6.188;2022-11-15T00:55:58;18.90;;;14.35;;
51614;SDS011;37695;52.960;6.188;2022-11-15T00:58:24;18.77;;;13.43;;
51614;SDS011;37695;52.960;6.188;2022-11-15T01:00:49;18.20;;;14.15;;
51614;SDS011;37695;52.960;6.188;2022-11-15T01:03:15;19.30;;;14.27;;
51614;SDS011;37695;52.960;6.188;2022-11-15T01:05:40;18.40;;;13.50;;
51614;SDS011;37695;52.960;6.188;2022-11-15T01:08:06;17.80;;;13.98;;
51614;SDS011;37695;52.960;6.188;2022-11-15T01:10:31;17.73;;;13.63;;
51614;SDS011;37695;52.960;6.188;2022-11-15T01:12:57;20.77;;;13.77;;
51614;SDS011;37695;52.960;6.188;2022-11-15T01:15:22;17.90;;;13.75;;
51614;SDS011;37695;52.960;6.188;2022-11-15T01:17:48;17.88;;;13.07;;
51614;SDS011;37695;52.960;6.188;2022-11-15T01:20:13;18.35;;;13.85;;
51614;SDS011;37695;52.960;6.188;2022-11-15T01:22:39;16.55;;;13.18;;
51614;SDS011;37695;52.960;6.188;2022-11-15T01:25:04;20.38;;;14.25;;
51614;SDS011;37695;52.960;6.188;2022-11-15T01:27:30;18.08;;;12.90;;
51614;SDS011;37695;52.960;6.188;2022-11-15T01:29:56;18.35;;;13.65;;
51614;SDS011;37695;52.960;6.188;2022-11-15T01:32:21;20.08;;;12.88;;
51614;SDS011;37695;52.960;6.188;2022-11-15T01:34:47;17.27;;;13.13;;
51614;SDS011;37695;52.960;6.188;2022-11-15T01:37:12;19.00;;;12.95;;
51614;SDS011;37695;52.960;6.188;2022-11-15T01:39:38;17.98;;;12.95;;
51614;SDS011;37695;52.960;6.188;2022-11-15T01:42:03;18.42;;;12.60;;
51614;SDS011;37695;52.960;6.188;2022-11-15T01:44:42;16.80;;;12.68;;
51614;SDS011;37695;52.960;6.188;2022-11-15T01:49:45;16.33;;;11.55;;
51614;SDS011;37695;52.960;6.188;2022-11-15T01:52:42;15.75;;;11.60;;
51614;SDS011;37695;52.960;6.188;2022-11-15T01:55:11;16.60;;;11.90;;
51614;SDS011;37695;52.960;6.188;2022-11-15T01:57:41;17.10;;;11.50;;
51614;SDS011;37695;52.960;6.188;2022-11-15T02:00:08;16.48;;;12.05;;
51614;SDS011;37695;52.960;6.188;2022-11-15T02:02:34;19.95;;;12.77;;
51614;SDS011;37695;52.960;6.188;2022-11-15T02:05:01;16.88;;;11.98;;
51614;SDS011;37695;52.960;6.188;2022-11-15T02:07:27;18.33;;;12.82;;
51614;SDS011;37695;52.960;6.188;2022-11-15T02:09:54;18.80;;;13.07;;
51614;SDS011;37695;52.960;6.188;2022-11-15T02:12:22;19.15;;;12.75;;
51614;SDS011;37695;52.960;6.188;2022-11-15T02:14:50;19.42;;;13.52;;
51614;SDS011;37695;52.960;6.188;2022-11-15T02:17:28;16.65;;;11.48;;
51614;SDS011;37695;52.960;6.188;2022-11-15T02:29:01;18.45;;;11.40;;
51614;SDS011;37695;52.960;6.188;2022-11-15T02:34:25;19.83;;;12.35;;
51614;SDS011;37695;52.960;6.188;2022-11-15T02:37:14;20.42;;;12.20;;
51614;SDS011;37695;52.960;6.188;2022-11-15T02:39:43;18.30;;;13.10;;
51614;SDS011;37695;52.960;6.188;2022-11-15T02:42:32;19.17;;;12.73;;
51614;SDS011;37695;52.960;6.188;2022-11-15T02:45:24;19.58;;;13.02;;
51614;SDS011;37695;52.960;6.188;2022-11-15T02:47:55;20.58;;;13.38;;
51614;SDS011;37695;52.960;6.188;2022-11-15T02:50:25;19.45;;;12.43;;
51614;SDS011;37695;52.960;6.188;2022-11-15T02:52:53;19.48;;;13.82;;
51614;SDS011;37695;52.960;6.188;2022-11-15T02:55:26;21.70;;;13.13;;
51614;SDS011;37695;52.960;6.188;2022-11-15T03:00:25;22.35;;;13.30;;
51614;SDS011;37695;52.960;6.188;2022-11-15T03:03:13;20.33;;;13.38;;
51614;SDS011;37695;52.960;6.188;2022-11-15T03:06:05;18.95;;;13.25;;
51614;SDS011;37695;52.960;6.188;2022-11-15T03:11:31;20.05;;;13.20;;
51614;SDS011;37695;52.960;6.188;2022-11-15T03:16:57;22.65;;;14.60;;
51614;SDS011;37695;52.960;6.188;2022-11-15T03:22:29;20.35;;;12.57;;
51614;SDS011;37695;52.960;6.188;2022-11-15T03:24:58;24.30;;;13.85;;
51614;SDS011;37695;52.960;6.188;2022-11-15T03:27:30;21.20;;;13.90;;
51614;SDS011;37695;52.960;6.188;2022-11-15T03:30:04;22.33;;;13.13;;
51614;SDS011;37695;52.960;6.188;2022-11-15T03:32:32;22.42;;;13.40;;
51614;SDS011;37695;52.960;6.188;2022-11-15T03:35:09;21.45;;;13.82;;
51614;SDS011;37695;52.960;6.188;2022-11-15T03:37:49;21.35;;;13.38;;
51614;SDS011;37695;52.960;6.188;2022-11-15T03:40:37;23.55;;;14.80;;
51614;SDS011;37695;52.960;6.188;2022-11-15T03:45:55;25.23;;;14.75;;
51614;SDS011;37695;52.960;6.188;2022-11-15T03:48:26;23.63;;;14.40;;
51614;SDS011;37695;52.960;6.188;2022-11-15T03:50:58;26.38;;;14.23;;
51614;SDS011;37695;52.960;6.188;2022-11-15T03:53:24;23.58;;;13.57;;
51614;SDS011;37695;52.960;6.188;2022-11-15T03:55:50;23.88;;;13.88;;
51614;SDS011;37695;52.960;6.188;2022-11-15T03:58:15;23.02;;;14.35;;
51614;SDS011;37695;52.960;6.188;2022-11-15T04:00:41;23.50;;;14.45;;
51614;SDS011;37695;52.960;6.188;2022-11-15T04:03:07;22.02;;;13.13;;
51614;SDS011;37695;52.960;6.188;2022-11-15T04:05:33;21.52;;;14.40;;
51614;SDS011;37695;52.960;6.188;2022-11-15T04:07:58;22.58;;;14.38;;
51614;SDS011;37695;52.960;6.188;2022-11-15T04:10:24;22.83;;;14.50;;
51614;SDS011;37695;52.960;6.188;2022-11-15T04:12:49;20.55;;;13.20;;
51614;SDS011;37695;52.960;6.188;2022-11-15T04:15:16;19.75;;;13.05;;
51614;SDS011;37695;52.960;6.188;2022-11-15T04:17:45;20.80;;;13.32;;
51614;SDS011;37695;52.960;6.188;2022-11-15T04:20:15;21.98;;;14.30;;
51614;SDS011;37695;52.960;6.188;2022-11-15T04:23:02;20.38;;;13.25;;
51614;SDS011;37695;52.960;6.188;2022-11-15T04:25:52;22.13;;;12.98;;
51614;SDS011;37695;52.960;6.188;2022-11-15T04:28:19;21.48;;;13.52;;
51614;SDS011;37695;52.960;6.188;2022-11-15T04:30:46;24.27;;;13.75;;
51614;SDS011;37695;52.960;6.188;2022-11-15T04:33:11;21.13;;;14.32;;
51614;SDS011;37695;52.960;6.188;2022-11-15T04:35:37;21.98;;;15.02;;
51614;SDS011;37695;52.960;6.188;2022-11-15T04:38:03;26.35;;;14.50;;
51614;SDS011;37695;52.960;6.188;2022-11-15T04:40:30;27.30;;;14.73;;
51614;SDS011;37695;52.960;6.188;2022-11-15T04:42:55;29.88;;;15.75;;
51614;SDS011;37695;52.960;6.188;2022-11-15T04:45:21;25.48;;;15.30;;
51614;SDS011;37695;52.960;6.188;2022-11-15T04:47:47;25.05;;;15.65;;
51614;SDS011;37695;52.960;6.188;2022-11-15T04:50:13;25.50;;;15.82;;
51614;SDS011;37695;52.960;6.188;2022-11-15T04:52:57;26.60;;;16.20;;
51614;SDS011;37695;52.960;6.188;2022-11-15T04:55:23;24.88;;;15.80;;
51614;SDS011;37695;52.960;6.188;2022-11-15T04:57:56;29.13;;;16.70;;
51614;SDS011;37695;52.960;6.188;2022-11-15T05:00:23;24.90;;;15.88;;
51614;SDS011;37695;52.960;6.188;2022-11-15T05:02:49;26.90;;;15.65;;
51614;SDS011;37695;52.960;6.188;2022-11-15T05:05:33;24.70;;;15.07;;
51614;SDS011;37695;52.960;6.188;2022-11-15T05:07:59;28.83;;;16.58;;
51614;SDS011;37695;52.960;6.188;2022-11-15T05:10:24;28.88;;;16.55;;
51614;SDS011;37695;52.960;6.188;2022-11-15T05:12:50;28.60;;;16.45;;
51614;SDS011;37695;52.960;6.188;2022-11-15T05:15:15;23.85;;;15.35;;
51614;SDS011;37695;52.960;6.188;2022-11-15T05:17:41;22.50;;;14.65;;
51614;SDS011;37695;52.960;6.188;2022-11-15T05:20:06;28.70;;;16.55;;
51614;SDS011;37695;52.960;6.188;2022-11-15T05:22:32;22.58;;;15.50;;
51614;SDS011;37695;52.960;6.188;2022-11-15T05:24:58;27.25;;;15.88;;
51614;SDS011;37695;52.960;6.188;2022-11-15T05:27:23;25.63;;;15.65;;
51614;SDS011;37695;52.960;6.188;2022-11-15T05:29:49;24.92;;;15.60;;
51614;SDS011;37695;52.960;6.188;2022-11-15T05:32:14;27.40;;;17.00;;
51614;SDS011;37695;52.960;6.188;2022-11-15T05:34:41;29.65;;;16.65;;
51614;SDS011;37695;52.960;6.188;2022-11-15T05:37:07;31.70;;;17.75;;
51614;SDS011;37695;52.960;6.188;2022-11-15T05:39:32;27.73;;;17.33;;
51614;SDS011;37695;52.960;6.188;2022-11-15T05:42:04;26.80;;;16.65;;
51614;SDS011;37695;52.960;6.188;2022-11-15T05:44:35;28.60;;;17.38;;
51614;SDS011;37695;52.960;6.188;2022-11-15T05:47:02;28.70;;;17.52;;
51614;SDS011;37695;52.960;6.188;2022-11-15T05:49:31;24.90;;;15.98;;
51614;SDS011;37695;52.960;6.188;2022-11-15T05:52:00;26.45;;;17.63;;
51614;SDS011;37695;52.960;6.188;2022-11-15T05:54:30;26.38;;;15.55;;
51614;SDS011;37695;52.960;6.188;2022-11-15T05:56:56;29.48;;;18.00;;
51614;SDS011;37695;52.960;6.188;2022-11-15T05:59:22;25.75;;;17.17;;
51614;SDS011;37695;52.960;6.188;2022-11-15T06:01:48;29.85;;;16.08;;
51614;SDS011;37695;52.960;6.188;2022-11-15T06:04:14;27.25;;;15.98;;
51614;SDS011;37695;52.960;6.188;2022-11-15T06:06:39;30.85;;;17.23;;
51614;SDS011;37695;52.960;6.188;2022-11-15T06:09:05;26.80;;;16.38;;
51614;SDS011;37695;52.960;6.188;2022-11-15T06:11:30;27.38;;;17.25;;
51614;SDS011;37695;52.960;6.188;2022-11-15T06:13:56;26.02;;;16.65;;
51614;SDS011;37695;52.960;6.188;2022-11-15T06:16:21;23.75;;;15.88;;
51614;SDS011;37695;52.960;6.188;2022-11-15T06:18:47;25.38;;;15.90;;
51614;SDS011;37695;52.960;6.188;2022-11-15T06:21:12;31.38;;;16.98;;
51614;SDS011;37695;52.960;6.188;2022-11-15T06:23:38;23.88;;;16.45;;
51614;SDS011;37695;52.960;6.188;2022-11-15T06:26:04;29.20;;;16.70;;
51614;SDS011;37695;52.960;6.188;2022-11-15T06:28:30;26.75;;;15.75;;
51614;SDS011;37695;52.960;6.188;2022-11-15T06:30:56;26.35;;;16.30;;
51614;SDS011;37695;52.960;6.188;2022-11-15T06:33:27;25.85;;;15.27;;
51614;SDS011;37695;52.960;6.188;2022-11-15T06:35:52;25.65;;;16.10;;
51614;SDS011;37695;52.960;6.188;2022-11-15T06:38:18;27.38;;;17.00;;
51614;SDS011;37695;52.960;6.188;2022-11-15T06:40:43;29.55;;;16.27;;
51614;SDS011;37695;52.960;6.188;2022-11-15T06:43:09;23.75;;;17.08;;
51614;SDS011;37695;52.960;6.188;2022-11-15T06:45:34;24.38;;;16.45;;
51614;SDS011;37695;52.960;6.188;2022-11-15T06:48:00;22.42;;;15.68;;
51614;SDS011;37695;52.960;6.188;2022-11-15T06:50:26;23.55;;;15.57;;
51614;SDS011;37695;52.960;6.188;2022-11-15T06:52:51;26.30;;;15.45;;
51614;SDS011;37695;52.960;6.188;2022-11-15T06:55:17;28.30;;;15.52;;
51614;SDS011;37695;52.960;6.188;2022-11-15T06:57:49;23.63;;;15.52;;
51614;SDS011;37695;52.960;6.188;2022-11-15T07:00:16;20.65;;;14.80;;
51614;SDS011;37695;52.960;6.188;2022-11-15T07:02:44;23.25;;;15.93;;
51614;SDS011;37695;52.960;6.188;2022-11-15T07:05:10;20.80;;;15.40;;
51614;SDS011;37695;52.960;6.188;2022-11-15T07:07:36;24.08;;;15.73;;
51614;SDS011;37695;52.960;6.188;2022-11-15T07:10:01;22.08;;;15.35;;
51614;SDS011;37695;52.960;6.188;2022-11-15T07:12:27;26.05;;;16.83;;
51614;SDS011;37695;52.960;6.188;2022-11-15T07:14:53;21.90;;;15.27;;
51614;SDS011;37695;52.960;6.188;2022-11-15T07:17:18;25.33;;;15.57;;
51614;SDS011;37695;52.960;6.188;2022-11-15T07:19:44;25.90;;;16.02;;
51614;SDS011;37695;52.960;6.188;2022-11-15T07:22:09;22.27;;;16.50;;
51614;SDS011;37695;52.960;6.188;2022-11-15T07:24:35;20.58;;;14.50;;
51614;SDS011;37695;52.960;6.188;2022-11-15T07:27:00;19.27;;;14.52;;
51614;SDS011;37695;52.960;6.188;2022-11-15T07:29:26;25.15;;;15.48;;
51614;SDS011;37695;52.960;6.188;2022-11-15T07:31:51;20.73;;;14.77;;
51614;SDS011;37695;52.960;6.188;2022-11-15T07:34:17;21.75;;;15.05;;
51614;SDS011;37695;52.960;6.188;2022-11-15T07:36:42;21.55;;;15.43;;
51614;SDS011;37695;52.960;6.188;2022-11-15T07:39:08;19.30;;;15.07;;
51614;SDS011;37695;52.960;6.188;2022-11-15T07:41:33;23.88;;;15.32;;
51614;SDS011;37695;52.960;6.188;2022-11-15T07:43:59;19.98;;;14.75;;
51614;SDS011;37695;52.960;6.188;2022-11-15T07:46:26;19.23;;;15.10;;
51614;SDS011;37695;52.960;6.188;2022-11-15T07:48:51;18.23;;;14.82;;
51614;SDS011;37695;52.960;6.188;2022-11-15T07:51:17;19.15;;;14.63;;
51614;SDS011;37695;52.960;6.188;2022-11-15T07:53:43;21.27;;;14.90;;
51614;SDS011;37695;52.960;6.188;2022-11-15T07:56:09;20.55;;;14.75;;
51614;SDS011;37695;52.960;6.188;2022-11-15T07:58:35;22.35;;;15.00;;
51614;SDS011;37695;52.960;6.188;2022-11-15T08:01:08;21.45;;;13.38;;
51614;SDS011;37695;52.960;6.188;2022-11-15T08:03:35;19.35;;;14.90;;
51614;SDS011;37695;52.960;6.188;2022-11-15T08:06:01;21.33;;;14.68;;
51614;SDS011;37695;52.960;6.188;2022-11-15T08:08:27;22.30;;;15.30;;
51614;SDS011;37695;52.960;6.188;2022-11-15T08:10:52;19.00;;;14.50;;
51614;SDS011;37695;52.960;6.188;2022-11-15T08:13:18;19.95;;;13.60;;
51614;SDS011;37695;52.960;6.188;2022-11-15T08:15:44;18.10;;;13.55;;
51614;SDS011;37695;52.960;6.188;2022-11-15T08:18:12;21.77;;;14.35;;
51614;SDS011;37695;52.960;6.188;2022-11-15T08:20:39;17.48;;;13.43;;
51614;SDS011;37695;52.960;6.188;2022-11-15T08:23:05;20.08;;;14.30;;
51614;SDS011;37695;52.960;6.188;2022-11-15T08:25:32;20.35;;;14.25;;
51614;SDS011;37695;52.960;6.188;2022-11-15T08:28:00;18.75;;;14.27;;
51614;SDS011;37695;52.960;6.188;2022-11-15T08:30:28;23.23;;;14.80;;
51614;SDS011;37695;52.960;6.188;2022-11-15T08:32:55;19.42;;;14.38;;
51614;SDS011;37695;52.960;6.188;2022-11-15T08:35:22;17.45;;;13.52;;
51614;SDS011;37695;52.960;6.188;2022-11-15T08:37:48;21.00;;;14.10;;
51614;SDS011;37695;52.960;6.188;2022-11-15T08:40:14;15.60;;;13.10;;
51614;SDS011;37695;52.960;6.188;2022-11-15T08:42:40;19.40;;;12.95;;
51614;SDS011;37695;52.960;6.188;2022-11-15T08:45:06;15.63;;;13.48;;
51614;SDS011;37695;52.960;6.188;2022-11-15T08:47:33;16.92;;;13.00;;
51614;SDS011;37695;52.960;6.188;2022-11-15T08:49:59;18.23;;;13.20;;
51614;SDS011;37695;52.960;6.188;2022-11-15T08:52:24;17.80;;;13.43;;
51614;SDS011;37695;52.960;6.188;2022-11-15T08:54:50;17.67;;;13.65;;
51614;SDS011;37695;52.960;6.188;2022-11-15T08:57:16;17.48;;;12.98;;
51614;SDS011;37695;52.960;6.188;2022-11-15T08:59:41;17.95;;;13.60;;
51614;SDS011;37695;52.960;6.188;2022-11-15T09:02:10;16.85;;;13.13;;
51614;SDS011;37695;52.960;6.188;2022-11-15T09:04:39;16.55;;;12.50;;
51614;SDS011;37695;52.960;6.188;2022-11-15T09:07:09;18.58;;;13.00;;
51614;SDS011;37695;52.960;6.188;2022-11-15T09:09:35;17.23;;;13.55;;
51614;SDS011;37695;52.960;6.188;2022-11-15T09:12:01;18.67;;;13.57;;
51614;SDS011;37695;52.960;6.188;2022-11-15T09:14:26;16.73;;;13.52;;
51614;SDS011;37695;52.960;6.188;2022-11-15T09:16:52;15.52;;;12.32;;
51614;SDS011;37695;52.960;6.188;2022-11-15T09:19:17;16.92;;;13.27;;
51614;SDS011;37695;52.960;6.188;2022-11-15T09:21:43;17.52;;;13.07;;
51614;SDS011;37695;52.960;6.188;2022-11-15T09:24:09;15.77;;;12.60;;
51614;SDS011;37695;52.960;6.188;2022-11-15T09:26:34;18.05;;;12.93;;
51614;SDS011;37695;52.960;6.188;2022-11-15T09:29:00;16.15;;;12.77;;
51614;SDS011;37695;52.960;6.188;2022-11-15T09:31:26;17.33;;;12.98;;
51614;SDS011;37695;52.960;6.188;2022-11-15T09:33:52;16.92;;;13.15;;
51614;SDS011;37695;52.960;6.188;2022-11-15T09:36:18;16.90;;;12.77;;
51614;SDS011;37695;52.960;6.188;2022-11-15T09:38:43;17.25;;;13.20;;
51614;SDS011;37695;52.960;6.188;2022-11-15T09:46:24;16.38;;;12.02;;
51614;SDS011;37695;52.960;6.188;2022-11-15T09:49:11;16.30;;;13.10;;
51614;SDS011;37695;52.960;6.188;2022-11-15T09:51:40;17.42;;;12.82;;
51614;SDS011;37695;52.960;6.188;2022-11-15T09:56:43;14.63;;;12.23;;
51614;SDS011;37695;52.960;6.188;2022-11-15T10:04:43;16.58;;;12.15;;
51614;SDS011;37695;52.960;6.188;2022-11-15T10:07:20;13.65;;;10.63;;
51614;SDS011;37695;52.960;6.188;2022-11-15T10:09:54;14.57;;;11.30;;
51614;SDS011;37695;52.960;6.188;2022-11-15T10:12:27;14.25;;;11.52;;
51614;SDS011;37695;52.960;6.188;2022-11-15T10:15:00;13.38;;;10.98;;
51614;SDS011;37695;52.960;6.188;2022-11-15T10:20:26;13.00;;;10.55;;
51614;SDS011;37695;52.960;6.188;2022-11-15T10:22:53;14.30;;;11.07;;
51614;SDS011;37695;52.960;6.188;2022-11-15T10:25:27;12.32;;;10.35;;
51614;SDS011;37695;52.960;6.188;2022-11-15T10:30:33;16.27;;;11.15;;
51614;SDS011;37695;52.960;6.188;2022-11-15T10:33:08;12.90;;;10.35;;
51614;SDS011;37695;52.960;6.188;2022-11-15T10:35:44;12.38;;;10.02;;
51614;SDS011;37695;52.960;6.188;2022-11-15T10:38:10;11.85;;;10.00;;
51614;SDS011;37695;52.960;6.188;2022-11-15T10:40:37;12.95;;;10.30;;
51614;SDS011;37695;52.960;6.188;2022-11-15T10:43:05;10.95;;;9.25;;
51614;SDS011;37695;52.960;6.188;2022-11-15T10:45:34;13.18;;;9.70;;
51614;SDS011;37695;52.960;6.188;2022-11-15T10:48:42;12.50;;;9.52;;
51614;SDS011;37695;52.960;6.188;2022-11-15T10:50:50;13.77;;;9.25;;
51614;SDS011;37695;52.960;6.188;2022-11-15T10:53:24;12.32;;;8.43;;
51614;SDS011;37695;52.960;6.188;2022-11-15T10:56:07;11.68;;;8.40;;
51614;SDS011;37695;52.960;6.188;2022-11-15T10:58:41;12.05;;;8.15;;
51614;SDS011;37695;52.960;6.188;2022-11-15T11:01:13;11.25;;;8.40;;
51614;SDS011;37695;52.960;6.188;2022-11-15T11:03:44;10.82;;;8.25;;
51614;SDS011;37695;52.960;6.188;2022-11-15T11:06:22;10.50;;;7.90;;
51614;SDS011;37695;52.960;6.188;2022-11-15T11:08:54;11.40;;;8.57;;
51614;SDS011;37695;52.960;6.188;2022-11-15T11:11:24;10.85;;;7.50;;
51614;SDS011;37695;52.960;6.188;2022-11-15T11:13:50;10.38;;;7.22;;
51614;SDS011;37695;52.960;6.188;2022-11-15T11:16:20;8.32;;;6.70;;
51614;SDS011;37695;52.960;6.188;2022-11-15T11:24:35;8.43;;;6.43;;
51614;SDS011;37695;52.960;6.188;2022-11-15T11:29:43;8.98;;;5.90;;
51614;SDS011;37695;52.960;6.188;2022-11-15T11:40:14;7.30;;;5.60;;
51614;SDS011;37695;52.960;6.188;2022-11-15T11:48:34;7.07;;;5.32;;
51614;SDS011;37695;52.960;6.188;2022-11-15T11:51:10;7.47;;;4.65;;
51614;SDS011;37695;52.960;6.188;2022-11-15T11:56:36;8.55;;;4.88;;
51614;SDS011;37695;52.960;6.188;2022-11-15T11:59:15;8.60;;;5.10;;
51614;SDS011;37695;52.960;6.188;2022-11-15T12:01:50;9.13;;;3.90;;
51614;SDS011;37695;52.960;6.188;2022-11-15T12:04:21;6.78;;;4.50;;
51614;SDS011;37695;52.960;6.188;2022-11-15T12:12:20;6.13;;;4.30;;
51614;SDS011;37695;52.960;6.188;2022-11-15T12:14:56;8.95;;;4.25;;
51614;SDS011;37695;52.960;6.188;2022-11-15T12:19:57;5.45;;;3.60;;
51614;SDS011;37695;52.960;6.188;2022-11-15T12:25:55;6.65;;;3.60;;
51614;SDS011;37695;52.960;6.188;2022-11-15T12:29:05;5.47;;;3.25;;
51614;SDS011;37695;52.960;6.188;2022-11-15T12:34:05;7.68;;;3.25;;
51614;SDS011;37695;52.960;6.188;2022-11-15T12:36:53;5.43;;;3.40;;
51614;SDS011;37695;52.960;6.188;2022-11-15T12:39:19;7.18;;;3.30;;
51614;SDS011;37695;52.960;6.188;2022-11-15T13:17:39;4.03;;;2.65;;
51614;SDS011;37695;52.960;6.188;2022-11-15T13:23:00;4.05;;;2.35;;
51614;SDS011;37695;52.960;6.188;2022-11-15T13:28:01;4.22;;;2.10;;
51614;SDS011;37695;52.960;6.188;2022-11-15T13:30:34;3.42;;;1.85;;
51614;SDS011;37695;52.960;6.188;2022-11-15T13:33:05;2.50;;;1.67;;
51614;SDS011;37695;52.960;6.188;2022-11-15T13:35:36;5.28;;;1.85;;
51614;SDS011;37695;52.960;6.188;2022-11-15T13:38:04;4.63;;;1.80;;
51614;SDS011;37695;52.960;6.188;2022-11-15T13:40:36;4.15;;;2.08;;
51614;SDS011;37695;52.960;6.188;2022-11-15T13:48:56;3.33;;;1.80;;
51614;SDS011;37695;52.960;6.188;2022-11-15T13:54:30;3.75;;;2.20;;
51614;SDS011;37695;52.960;6.188;2022-11-15T13:57:05;2.95;;;1.92;;
51614;SDS011;37695;52.960;6.188;2022-11-15T13:59:34;3.00;;;2.00;;
51614;SDS011;37695;52.960;6.188;2022-11-15T14:02:12;5.07;;;2.13;;
51614;SDS011;37695;52.960;6.188;2022-11-15T14:05:15;3.47;;;1.60;;
51614;SDS011;37695;52.960;6.188;2022-11-15T14:07:53;3.05;;;2.00;;
51614;SDS011;37695;52.960;6.188;2022-11-15T14:10:33;3.47;;;1.60;;
51614;SDS011;37695;52.960;6.188;2022-11-15T14:13:01;2.65;;;1.70;;
51614;SDS011;37695;52.960;6.188;2022-11-15T14:15:29;2.80;;;1.83;;
51614;SDS011;37695;52.960;6.188;2022-11-15T14:17:57;2.53;;;1.60;;
51614;SDS011;37695;52.960;6.188;2022-11-15T14:20:33;3.92;;;1.60;;
51614;SDS011;37695;52.960;6.188;2022-11-15T14:23:03;3.03;;;1.60;;
51614;SDS011;37695;52.960;6.188;2022-11-15T14:25:51;2.45;;;1.50;;
51614;SDS011;37695;52.960;6.188;2022-11-15T14:30:49;3.00;;;1.52;;
51614;SDS011;37695;52.960;6.188;2022-11-15T14:33:24;2.88;;;1.50;;
51614;SDS011;37695;52.960;6.188;2022-11-15T14:35:54;2.30;;;1.50;;
51614;SDS011;37695;52.960;6.188;2022-11-15T14:38:22;3.25;;;1.60;;
51614;SDS011;37695;52.960;6.188;2022-11-15T14:40:48;3.22;;;1.48;;
51614;SDS011;37695;52.960;6.188;2022-11-15T14:43:14;3.30;;;1.50;;
51614;SDS011;37695;52.960;6.188;2022-11-15T14:45:40;2.72;;;1.50;;
51614;SDS011;37695;52.960;6.188;2022-11-15T14:48:06;2.70;;;1.30;;
51614;SDS011;37695;52.960;6.188;2022-11-15T14:50:32;3.60;;;1.70;;
51614;SDS011;37695;52.960;6.188;2022-11-15T14:52:58;2.38;;;1.70;;
51614;SDS011;37695;52.960;6.188;2022-11-15T14:55:25;2.13;;;1.50;;
51614;SDS011;37695;52.960;6.188;2022-11-15T14:57:52;4.20;;;1.63;;
51614;SDS011;37695;52.960;6.188;2022-11-15T15:00:18;3.80;;;1.50;;
51614;SDS011;37695;52.960;6.188;2022-11-15T15:02:44;3.10;;;1.27;;
51614;SDS011;37695;52.960;6.188;2022-11-15T15:07:48;5.55;;;1.50;;
51614;SDS011;37695;52.960;6.188;2022-11-15T15:10:15;4.20;;;1.30;;
51614;SDS011;37695;52.960;6.188;2022-11-15T15:12:41;2.95;;;1.20;;
51614;SDS011;37695;52.960;6.188;2022-11-15T15:15:12;3.58;;;1.50;;
51614;SDS011;37695;52.960;6.188;2022-11-15T15:17:40;2.45;;;1.02;;
51614;SDS011;37695;52.960;6.188;2022-11-15T15:20:05;2.42;;;1.30;;
51614;SDS011;37695;52.960;6.188;2022-11-15T15:22:31;1.63;;;1.20;;
51614;SDS011;37695;52.960;6.188;2022-11-15T15:24:57;3.50;;;1.58;;
51614;SDS011;37695;52.960;6.188;2022-11-15T15:27:22;2.47;;;1.40;;
51614;SDS011;37695;52.960;6.188;2022-11-15T15:29:48;3.30;;;1.40;;
51614;SDS011;37695;52.960;6.188;2022-11-15T15:32:13;3.13;;;1.30;;
51614;SDS011;37695;52.960;6.188;2022-11-15T15:34:39;2.85;;;1.30;;
51614;SDS011;37695;52.960;6.188;2022-11-15T15:39:47;2.65;;;1.40;;
51614;SDS011;37695;52.960;6.188;2022-11-15T15:42:14;2.92;;;1.58;;
51614;SDS011;37695;52.960;6.188;2022-11-15T15:44:39;4.13;;;1.80;;
51614;SDS011;37695;52.960;6.188;2022-11-15T15:47:12;3.88;;;2.00;;
51614;SDS011;37695;52.960;6.188;2022-11-15T15:49:41;5.05;;;2.00;;
51614;SDS011;37695;52.960;6.188;2022-11-15T15:52:06;2.85;;;1.90;;
51614;SDS011;37695;52.960;6.188;2022-11-15T15:54:32;4.32;;;2.30;;
51614;SDS011;37695;52.960;6.188;2022-11-15T15:56:57;4.72;;;2.35;;
51614;SDS011;37695;52.960;6.188;2022-11-15T15:59:23;3.53;;;2.42;;
51614;SDS011;37695;52.960;6.188;2022-11-15T16:01:48;4.57;;;2.47;;
51614;SDS011;37695;52.960;6.188;2022-11-15T16:04:14;3.65;;;2.22;;
51614;SDS011;37695;52.960;6.188;2022-11-15T16:06:40;5.22;;;2.65;;
51614;SDS011;37695;52.960;6.188;2022-11-15T16:09:11;5.50;;;2.90;;
51614;SDS011;37695;52.960;6.188;2022-11-15T16:11:42;4.63;;;2.70;;
51614;SDS011;37695;52.960;6.188;2022-11-15T16:14:08;5.00;;;3.17;;
51614;SDS011;37695;52.960;6.188;2022-11-15T16:16:34;5.47;;;3.47;;
51614;SDS011;37695;52.960;6.188;2022-11-15T16:19:00;4.72;;;3.20;;
51614;SDS011;37695;52.960;6.188;2022-11-15T16:21:26;4.75;;;3.20;;
51614;SDS011;37695;52.960;6.188;2022-11-15T16:23:52;5.55;;;3.20;;
51614;SDS011;37695;52.960;6.188;2022-11-15T16:26:20;4.38;;;3.00;;
51614;SDS011;37695;52.960;6.188;2022-11-15T16:28:46;5.50;;;3.47;;
51614;SDS011;37695;52.960;6.188;2022-11-15T16:31:13;4.63;;;2.95;;
51614;SDS011;37695;52.960;6.188;2022-11-15T16:33:39;4.28;;;3.00;;
51614;SDS011;37695;52.960;6.188;2022-11-15T16:36:20;5.03;;;3.10;;
51614;SDS011;37695;52.960;6.188;2022-11-15T16:38:47;4.68;;;2.90;;
51614;SDS011;37695;52.960;6.188;2022-11-15T16:41:13;6.40;;;3.25;;
51614;SDS011;37695;52.960;6.188;2022-11-15T16:43:39;5.43;;;3.15;;
51614;SDS011;37695;52.960;6.188;2022-11-15T16:46:12;3.88;;;2.70;;
51614;SDS011;37695;52.960;6.188;2022-11-15T16:48:46;5.45;;;2.60;;
51614;SDS011;37695;52.960;6.188;2022-11-15T16:51:12;5.65;;;2.90;;
51614;SDS011;37695;52.960;6.188;2022-11-15T16:53:38;5.35;;;3.10;;
51614;SDS011;37695;52.960;6.188;2022-11-15T16:56:08;4.50;;;2.42;;
51614;SDS011;37695;52.960;6.188;2022-11-15T16:58:42;3.70;;;2.28;;
51614;SDS011;37695;52.960;6.188;2022-11-15T17:01:09;5.80;;;2.60;;